createdAt,value
2022-11-24T00:01:33.269Z,98216.59
2022-11-24T00:04:03.336Z,98229.78
2022-11-24T00:06:33.887Z,98230.28
2022-11-24T00:09:03.520Z,98229.53
2022-11-24T00:11:33.475Z,98219.06
2022-11-24T00:14:04.334Z,98222.16
2022-11-24T00:16:35.805Z,98229.91
2022-11-24T00:19:09.316Z,98228.94
2022-11-24T00:21:41.774Z,98221.75
2022-11-24T00:24:11.974Z,98226.06
2022-11-24T00:26:40.408Z,98230.84
2022-11-24T00:29:12.454Z,98236.44
2022-11-24T00:31:42.953Z,98244.22
2022-11-24T00:34:15.732Z,98250.72
2022-11-24T00:36:44.458Z,98249.00
2022-11-24T00:39:15.637Z,98257.34
2022-11-24T00:41:44.765Z,98260.19
2022-11-24T00:44:15.266Z,98264.38
2022-11-24T00:46:44.187Z,98273.22
2022-11-24T00:49:12.787Z,98271.75
2022-11-24T00:51:42.384Z,98267.13
2022-11-24T00:54:11.225Z,98270.03
2022-11-24T00:56:39.862Z,98270.69
2022-11-24T00:59:08.693Z,98275.06
2022-11-24T01:01:39.269Z,98263.81
2022-11-24T01:04:09.800Z,98272.13
2022-11-24T01:06:39.402Z,98283.03
2022-11-24T01:09:07.980Z,98281.13
2022-11-24T01:11:53.574Z,98286.50
2022-11-24T01:14:25.065Z,98287.25
2022-11-24T01:16:55.897Z,98295.00
2022-11-24T01:19:25.335Z,98293.00
2022-11-24T01:21:54.358Z,98293.69
2022-11-24T01:24:23.008Z,98295.66
2022-11-24T01:26:56.239Z,98301.94
2022-11-24T01:29:26.557Z,98297.16
2022-11-24T01:31:56.721Z,98303.63
2022-11-24T01:34:25.615Z,98303.34
2022-11-24T01:36:54.283Z,98310.66
2022-11-24T01:39:23.785Z,98309.81
2022-11-24T01:41:52.985Z,98309.06
2022-11-24T01:44:24.223Z,98311.69
2022-11-24T01:47:00.514Z,98318.94
2022-11-24T01:49:38.063Z,98329.38
2022-11-24T01:52:15.806Z,98326.66
2022-11-24T01:54:48.642Z,98329.38
2022-11-24T01:57:23.374Z,98331.91
2022-11-24T01:59:56.892Z,98332.19
2022-11-24T02:02:29.871Z,98334.66
2022-11-24T02:05:04.173Z,98336.13
2022-11-24T02:07:33.344Z,98332.56
2022-11-24T02:10:06.311Z,98336.41
2022-11-24T02:12:35.124Z,98341.59
2022-11-24T02:15:03.569Z,98350.63
2022-11-24T02:17:33.698Z,98347.13
2022-11-24T02:20:05.092Z,98342.06
2022-11-24T02:22:39.453Z,98341.28
2022-11-24T02:25:18.525Z,98347.88
2022-11-24T02:27:53.729Z,98350.25
2022-11-24T02:30:22.931Z,98357.09
2022-11-24T02:32:52.983Z,98357.09
2022-11-24T02:35:22.453Z,98351.38
2022-11-24T02:37:50.885Z,98356.91
2022-11-24T02:40:25.645Z,98355.13
2022-11-24T02:43:00.023Z,98344.03
2022-11-24T02:45:29.511Z,98356.53
2022-11-24T02:47:57.683Z,98346.22
2022-11-24T02:50:26.311Z,98345.44
2022-11-24T02:52:55.144Z,98347.78
2022-11-24T02:55:23.784Z,98344.88
2022-11-24T02:57:57.544Z,98349.97
2022-11-24T03:00:37.650Z,98343.94
2022-11-24T03:03:06.271Z,98346.41
2022-11-24T03:05:35.158Z,98349.41
2022-11-24T03:08:03.843Z,98346.94
2022-11-24T03:10:32.435Z,98352.50
2022-11-24T03:13:01.254Z,98351.81
2022-11-24T03:15:31.475Z,98350.63
2022-11-24T03:17:59.964Z,98346.22
2022-11-24T03:20:29.278Z,98347.69
2022-11-24T03:22:58.860Z,98347.69
2022-11-24T03:25:27.324Z,98352.22
2022-11-24T03:27:57.639Z,98362.75
2022-11-24T03:30:26.403Z,98359.28
2022-11-24T03:32:56.542Z,98366.78
2022-11-24T03:35:26.126Z,98371.59
2022-11-24T03:37:54.552Z,98369.91
2022-11-24T03:40:23.040Z,98372.13
2022-11-24T03:42:51.536Z,98368.56
2022-11-24T03:45:44.817Z,98368.09
2022-11-24T03:48:11.912Z,98384.25
2022-11-24T03:50:40.372Z,98380.59
2022-11-24T03:53:09.072Z,98379.66
2022-11-24T03:55:38.170Z,98382.72
2022-11-24T03:58:06.670Z,98387.75
2022-11-24T04:00:36.373Z,98373.81
2022-11-24T04:03:05.052Z,98379.84
2022-11-24T04:05:37.941Z,98389.44
2022-11-24T04:08:07.221Z,98381.16
2022-11-24T04:10:37.619Z,98377.38
2022-11-24T04:13:06.125Z,98379.25
2022-11-24T04:15:34.415Z,98392.13
2022-11-24T04:18:04.372Z,98392.66
2022-11-24T04:20:35.215Z,98397.38
2022-11-24T04:23:04.105Z,98405.31
2022-11-24T04:25:34.279Z,98406.06
2022-11-24T04:28:04.060Z,98402.00
2022-11-24T04:30:32.764Z,98398.53
2022-11-24T04:33:01.559Z,98394.28
2022-11-24T04:35:30.543Z,98395.59
2022-11-24T04:38:03.883Z,98411.34
2022-11-24T04:40:32.366Z,98409.19
2022-11-24T04:43:00.841Z,98411.66
2022-11-24T04:45:29.631Z,98416.19
2022-11-24T04:47:58.171Z,98423.53
2022-11-24T04:50:27.065Z,98431.69
2022-11-24T04:52:55.678Z,98432.16
2022-11-24T04:55:25.842Z,98441.09
2022-11-24T04:57:54.209Z,98438.81
2022-11-24T05:00:22.897Z,98442.09
2022-11-24T05:02:51.363Z,98447.44
2022-11-24T05:05:20.589Z,98451.25
2022-11-24T05:07:48.810Z,98456.16
2022-11-24T05:10:35.152Z,98459.53
2022-11-24T05:13:06.360Z,98476.63
2022-11-24T05:15:36.208Z,98485.34
2022-11-24T05:18:07.632Z,98477.63
2022-11-24T05:20:36.770Z,98482.75
2022-11-24T05:23:06.329Z,98484.25
2022-11-24T05:25:34.892Z,98487.72
2022-11-24T05:28:08.947Z,98487.38
2022-11-24T05:30:40.151Z,98496.13
2022-11-24T05:33:09.005Z,98495.94
2022-11-24T05:35:38.217Z,98493.41
2022-11-24T05:38:08.003Z,98495.63
2022-11-24T05:40:36.392Z,98495.84
2022-11-24T05:43:06.324Z,98508.84
2022-11-24T05:45:34.789Z,98504.41
2022-11-24T05:48:06.946Z,98514.94
2022-11-24T05:50:36.969Z,98502.19
2022-11-24T05:53:06.535Z,98501.59
2022-11-24T05:55:37.073Z,98509.88
2022-11-24T05:58:10.146Z,98506.78
2022-11-24T06:00:38.372Z,98507.00
2022-11-24T06:03:07.154Z,98501.88
2022-11-24T06:05:36.022Z,98504.53
2022-11-24T06:08:04.487Z,98503.13
2022-11-24T06:10:33.044Z,98509.31
2022-11-24T06:13:01.432Z,98504.72
2022-11-24T06:15:31.205Z,98501.25
2022-11-24T06:17:59.490Z,98504.72
2022-11-24T06:20:32.503Z,98506.75
2022-11-24T06:23:03.147Z,98511.56
2022-11-24T06:25:31.677Z,98516.94
2022-11-24T06:28:00.148Z,98509.56
2022-11-24T06:30:28.845Z,98513.75
2022-11-24T06:32:59.180Z,98515.53
2022-11-24T06:35:30.020Z,98508.78
2022-11-24T06:37:58.783Z,98517.88
2022-11-24T06:40:27.387Z,98515.84
2022-11-24T06:42:57.246Z,98515.19
2022-11-24T06:45:26.044Z,98512.88
2022-11-24T06:47:58.444Z,98514.41
2022-11-24T06:50:33.409Z,98519.41
2022-11-24T06:53:03.708Z,98524.84
2022-11-24T06:55:32.402Z,98527.38
2022-11-24T06:58:00.852Z,98525.09
2022-11-24T07:00:32.297Z,98523.66
2022-11-24T07:03:00.854Z,98523.91
2022-11-24T07:05:31.804Z,98525.59
2022-11-24T07:08:01.969Z,98525.59
2022-11-24T07:10:30.983Z,98536.69
2022-11-24T07:12:59.673Z,98531.09
2022-11-24T07:15:30.173Z,98531.81
2022-11-24T07:17:58.617Z,98543.00
2022-11-24T07:20:29.329Z,98534.78
2022-11-24T07:23:00.398Z,98537.50
2022-11-24T07:25:29.447Z,98544.00
2022-11-24T07:27:58.387Z,98540.44
2022-11-24T07:30:27.886Z,98551.81
2022-11-24T07:33:02.212Z,98551.47
2022-11-24T07:35:31.388Z,98553.25
2022-11-24T07:38:01.689Z,98557.69
2022-11-24T07:40:31.126Z,98570.19
2022-11-24T07:43:02.362Z,98564.72
2022-11-24T07:45:30.773Z,98569.34
2022-11-24T07:47:59.171Z,98575.41
2022-11-24T07:50:27.681Z,98576.44
2022-11-24T07:52:56.401Z,98585.09
2022-11-24T07:55:26.264Z,98580.97
2022-11-24T07:57:54.795Z,98581.22
2022-11-24T08:00:24.576Z,98587.75
2022-11-24T08:02:54.220Z,98588.94
2022-11-24T08:05:23.368Z,98589.22
2022-11-24T08:07:53.498Z,98599.22
2022-11-24T08:10:27.160Z,98606.06
2022-11-24T08:12:56.205Z,98606.75
2022-11-24T08:15:25.703Z,98609.09
2022-11-24T08:17:54.344Z,98607.19
2022-11-24T08:20:25.357Z,98616.06
2022-11-24T08:23:04.900Z,98619.91
2022-11-24T08:25:35.167Z,98612.47
2022-11-24T08:28:08.698Z,98613.81
2022-11-24T08:30:36.877Z,98613.03
2022-11-24T08:33:06.825Z,98612.84
2022-11-24T08:35:38.469Z,98615.00
2022-11-24T08:38:08.572Z,98622.72
2022-11-24T08:40:39.907Z,98622.19
2022-11-24T08:43:09.981Z,98621.22
2022-11-24T08:45:41.655Z,98625.19
2022-11-24T08:48:11.674Z,98630.34
2022-11-24T08:50:40.104Z,98623.88
2022-11-24T08:53:08.575Z,98629.09
2022-11-24T08:55:38.175Z,98639.50
2022-11-24T08:58:06.760Z,98640.69
2022-11-24T09:00:37.885Z,98649.38
2022-11-24T09:03:06.840Z,98650.72
2022-11-24T09:05:52.456Z,98655.50
2022-11-24T09:08:23.944Z,98658.78
2022-11-24T09:10:56.941Z,98660.69
2022-11-24T09:13:27.162Z,98657.47
2022-11-24T09:15:56.102Z,98657.25
2022-11-24T09:18:28.957Z,98659.16
2022-11-24T09:21:08.216Z,98668.38
2022-11-24T09:23:36.605Z,98664.91
2022-11-24T09:26:08.538Z,98666.53
2022-11-24T09:28:36.879Z,98668.94
2022-11-24T09:31:07.352Z,98663.78
2022-11-24T09:33:37.043Z,98674.22
2022-11-24T09:36:06.400Z,98675.78
2022-11-24T09:38:34.895Z,98674.81
2022-11-24T09:41:22.909Z,98678.19
2022-11-24T09:44:02.259Z,98680.53
2022-11-24T09:46:35.063Z,98672.66
2022-11-24T09:49:06.430Z,98676.81
2022-11-24T09:51:35.346Z,98685.59
2022-11-24T09:54:13.262Z,98695.75
2022-11-24T09:56:43.663Z,98691.88
2022-11-24T09:59:16.986Z,98692.22
2022-11-24T10:01:47.059Z,98704.66
2022-11-24T10:04:18.461Z,98696.78
2022-11-24T10:06:53.118Z,98694.09
2022-11-24T10:09:34.697Z,98695.03
2022-11-24T10:12:17.607Z,98690.31
2022-11-24T10:15:05.020Z,98694.94
2022-11-24T10:17:51.787Z,98694.81
2022-11-24T10:20:27.783Z,98679.25
2022-11-24T10:23:10.951Z,98683.56
2022-11-24T10:25:50.821Z,98690.31
2022-11-24T10:28:20.671Z,98679.41
2022-11-24T10:30:49.257Z,98685.72
2022-11-24T10:33:27.088Z,98687.94
2022-11-24T10:36:05.971Z,98686.94
2022-11-24T10:38:43.491Z,98695.00
2022-11-24T10:41:17.905Z,98690.38
2022-11-24T10:43:47.500Z,98696.81
2022-11-24T10:46:20.826Z,98699.78
2022-11-24T10:48:52.223Z,98694.25
2022-11-24T10:51:38.588Z,98695.13
2022-11-24T10:54:13.801Z,98700.91
2022-11-24T10:56:44.987Z,98693.72
2022-11-24T10:59:32.447Z,98686.81
2022-11-24T11:02:01.360Z,98699.59
2022-11-24T11:04:31.246Z,98699.66
2022-11-24T11:07:19.847Z,98700.44
2022-11-24T11:09:49.412Z,98704.34
2022-11-24T11:15:32.744Z,98690.16
2022-11-24T11:18:02.242Z,98686.78
2022-11-24T11:20:34.703Z,98684.97
2022-11-24T11:23:15.218Z,98684.25
2022-11-24T11:25:43.902Z,98681.50
2022-11-24T11:28:28.023Z,98682.56
2022-11-24T11:31:21.339Z,98685.22
2022-11-24T11:34:06.305Z,98687.41
2022-11-24T11:36:36.172Z,98687.97
2022-11-24T11:39:05.384Z,98685.44
2022-11-24T11:41:37.588Z,98682.78
2022-11-24T11:44:19.534Z,98685.50
2022-11-24T11:46:49.474Z,98688.06
2022-11-24T11:49:17.749Z,98692.31
2022-11-24T11:51:57.750Z,98688.47
2022-11-24T11:54:42.733Z,98682.13
2022-11-24T11:57:16.584Z,98686.91
2022-11-24T11:59:59.899Z,98672.00
2022-11-24T12:03:06.435Z,98678.44
2022-11-24T12:05:47.780Z,98680.97
2022-11-24T12:08:43.998Z,98684.56
2022-11-24T12:11:27.378Z,98688.38
2022-11-24T12:14:12.207Z,98689.97
2022-11-24T12:16:47.848Z,98702.97
2022-11-24T12:19:30.281Z,98706.03
2022-11-24T12:22:09.131Z,98708.84
2022-11-24T12:24:45.694Z,98708.28
2022-11-24T12:27:28.795Z,98700.47
2022-11-24T12:30:07.195Z,98704.84
2022-11-24T12:32:54.495Z,98697.69
2022-11-24T12:35:32.083Z,98709.69
2022-11-24T12:38:12.581Z,98710.38
2022-11-24T12:41:18.164Z,98702.31
2022-11-24T12:43:52.406Z,98700.75
2022-11-24T12:46:26.992Z,98701.25
2022-11-24T12:49:05.831Z,98708.00
2022-11-24T12:51:40.141Z,98713.59
2022-11-24T12:54:13.893Z,98711.56
2022-11-24T12:56:46.944Z,98722.47
2022-11-24T12:59:25.967Z,98711.78
2022-11-24T13:02:06.180Z,98719.28
2022-11-24T13:04:39.632Z,98723.16
2022-11-24T13:07:19.827Z,98720.09
2022-11-24T13:10:34.673Z,98722.25
2022-11-24T13:13:11.672Z,98721.63
2022-11-24T13:19:15.506Z,98729.16
2022-11-24T13:22:21.001Z,98733.97
2022-11-24T13:25:12.817Z,98734.31
2022-11-24T13:27:43.690Z,98728.38
2022-11-24T13:30:52.501Z,98730.91
2022-11-24T13:33:31.458Z,98735.25
2022-11-24T13:36:31.726Z,98731.44
2022-11-24T13:39:02.166Z,98735.47
2022-11-24T13:42:03.726Z,98738.94
2022-11-24T13:44:51.145Z,98744.28
2022-11-24T13:47:40.757Z,98736.50
2022-11-24T13:50:14.981Z,98737.56
2022-11-24T13:52:50.560Z,98741.81
2022-11-24T13:55:30.515Z,98738.72
2022-11-24T13:58:04.558Z,98732.56
2022-11-24T14:00:36.673Z,98742.44
2022-11-24T14:03:17.505Z,98749.78
2022-11-24T14:05:50.559Z,98750.06
2022-11-24T14:08:24.630Z,98745.06
2022-11-24T14:10:53.758Z,98751.59
2022-11-24T14:13:27.995Z,98746.28
2022-11-24T14:16:18.016Z,98742.50
2022-11-24T14:18:49.949Z,98740.94
2022-11-24T14:21:29.316Z,98743.09
2022-11-24T14:24:01.394Z,98737.25
2022-11-24T14:26:34.440Z,98749.19
2022-11-24T14:29:07.769Z,98727.69
2022-11-24T14:31:37.470Z,98736.53
2022-11-24T14:34:18.131Z,98732.72
2022-11-24T14:36:46.602Z,98735.84
2022-11-24T14:39:17.167Z,98729.34
2022-11-24T14:41:54.574Z,98739.34
2022-11-24T14:44:26.717Z,98732.94
2022-11-24T14:47:05.749Z,98734.88
2022-11-24T14:49:35.586Z,98734.00
2022-11-24T14:52:06.342Z,98740.78
2022-11-24T14:54:38.925Z,98753.16
2022-11-24T14:57:08.456Z,98754.56
2022-11-24T14:59:38.495Z,98763.34
2022-11-24T15:02:52.243Z,98766.88
2022-11-24T15:05:21.973Z,98760.06
2022-11-24T15:07:52.369Z,98768.44
2022-11-24T15:10:35.014Z,98760.44
2022-11-24T15:13:05.957Z,98754.81
2022-11-24T15:15:38.045Z,98759.50
2022-11-24T15:18:08.232Z,98761.75
2022-11-24T15:20:41.715Z,98770.03
2022-11-24T15:23:22.821Z,98769.13
2022-11-24T15:25:58.722Z,98765.00
2022-11-24T15:28:27.051Z,98772.59
2022-11-24T15:30:56.080Z,98773.44
2022-11-24T15:33:25.806Z,98783.28
2022-11-24T15:35:54.881Z,98783.91
2022-11-24T15:38:24.156Z,98781.47
2022-11-24T15:40:53.995Z,98792.34
2022-11-24T15:43:30.319Z,98800.59
2022-11-24T15:45:59.381Z,98801.75
2022-11-24T15:48:30.204Z,98806.19
2022-11-24T15:50:59.735Z,98806.97
2022-11-24T15:53:33.980Z,98804.03
2022-11-24T15:56:04.007Z,98813.09
2022-11-24T15:58:32.528Z,98814.81
2022-11-24T16:01:01.248Z,98821.09
2022-11-24T16:03:48.175Z,98826.47
2022-11-24T16:06:24.536Z,98826.13
2022-11-24T16:08:53.431Z,98829.03
2022-11-24T16:11:22.153Z,98824.13
2022-11-24T16:13:53.488Z,98832.53
2022-11-24T16:16:23.634Z,98832.34
2022-11-24T16:18:57.293Z,98832.03
2022-11-24T16:21:27.035Z,98831.75
2022-11-24T16:23:55.747Z,98831.09
2022-11-24T16:26:24.396Z,98829.03
2022-11-24T16:28:52.864Z,98832.41
2022-11-24T16:31:21.997Z,98836.56
2022-11-24T16:33:50.474Z,98838.19
2022-11-24T16:36:21.209Z,98837.97
2022-11-24T16:38:49.661Z,98844.13
2022-11-24T16:41:18.033Z,98848.38
2022-11-24T16:43:47.441Z,98838.47
2022-11-24T16:46:22.219Z,98837.31
2022-11-24T16:48:55.175Z,98839.00
2022-11-24T16:51:29.982Z,98840.63
2022-11-24T16:54:03.180Z,98836.47
2022-11-24T16:56:34.286Z,98840.91
2022-11-24T16:59:02.851Z,98852.44
2022-11-24T17:01:31.099Z,98847.22
2022-11-24T17:03:59.594Z,98848.34
2022-11-24T17:06:29.402Z,98850.50
2022-11-24T17:08:57.492Z,98849.00
2022-11-24T17:11:28.263Z,98855.97
2022-11-24T17:13:57.788Z,98858.66
2022-11-24T17:16:27.375Z,98853.03
2022-11-24T17:18:56.374Z,98861.38
2022-11-24T17:21:26.311Z,98867.25
2022-11-24T17:23:57.775Z,98864.25
2022-11-24T17:26:26.720Z,98865.88
2022-11-24T17:28:56.093Z,98868.69
2022-11-24T17:31:26.409Z,98869.28
2022-11-24T17:33:56.541Z,98875.94
2022-11-24T17:36:25.571Z,98875.88
2022-11-24T17:38:55.547Z,98873.06
2022-11-24T17:41:24.802Z,98883.63
2022-11-24T17:43:56.809Z,98879.53
2022-11-24T17:46:26.834Z,98879.91
2022-11-24T17:48:55.723Z,98880.50
2022-11-24T17:51:25.253Z,98879.84
2022-11-24T17:53:57.543Z,98884.06
2022-11-24T17:56:27.437Z,98884.28
2022-11-24T17:58:56.567Z,98894.41
2022-11-24T18:01:26.198Z,98898.50
2022-11-24T18:03:55.180Z,98897.41
2022-11-24T18:06:25.667Z,98900.38
2022-11-24T18:08:57.859Z,98900.72
2022-11-24T18:11:31.454Z,98901.75
2022-11-24T18:14:03.503Z,98899.13
2022-11-24T18:16:33.406Z,98901.75
2022-11-24T18:19:11.336Z,98908.06
2022-11-24T18:21:40.805Z,98913.84
2022-11-24T18:24:11.930Z,98916.03
2022-11-24T18:26:42.678Z,98922.50
2022-11-24T18:29:11.565Z,98916.28
2022-11-24T18:31:40.661Z,98912.97
2022-11-24T18:34:09.277Z,98914.69
2022-11-24T18:36:38.392Z,98916.13
2022-11-24T18:39:08.603Z,98919.00
2022-11-24T18:41:40.675Z,98915.88
2022-11-24T18:44:09.088Z,98922.59
2022-11-24T18:46:38.145Z,98927.84
2022-11-24T18:49:07.140Z,98924.19
2022-11-24T18:51:36.190Z,98930.31
2022-11-24T18:54:05.751Z,98934.72
2022-11-24T18:56:34.230Z,98931.81
2022-11-24T18:59:05.253Z,98934.63
2022-11-24T19:01:34.761Z,98931.72
2022-11-24T19:04:04.168Z,98927.66
2022-11-24T19:06:34.966Z,98929.94
2022-11-24T19:09:05.980Z,98933.16
2022-11-24T19:11:37.269Z,98930.41
2022-11-24T19:14:09.371Z,98936.41
2022-11-24T19:16:38.461Z,98940.00
2022-11-24T19:19:07.695Z,98943.00
2022-11-24T19:21:38.073Z,98942.94
2022-11-24T19:24:07.567Z,98947.81
2022-11-24T19:26:37.419Z,98936.22
2022-11-24T19:29:08.807Z,98939.00
2022-11-24T19:31:38.547Z,98939.69
2022-11-24T19:34:08.247Z,98945.78
2022-11-24T19:36:36.782Z,98942.31
2022-11-24T19:39:05.738Z,98944.19
2022-11-24T19:41:34.954Z,98943.38
2022-11-24T19:44:03.390Z,98944.88
2022-11-24T19:46:33.675Z,98950.69
2022-11-24T19:49:04.079Z,98944.31
2022-11-24T19:51:33.742Z,98936.44
2022-11-24T19:54:02.590Z,98942.88
2022-11-24T19:56:35.153Z,98941.78
2022-11-24T19:59:04.997Z,98942.31
2022-11-24T20:01:38.329Z,98940.91
2022-11-24T20:04:09.219Z,98941.25
2022-11-24T20:06:39.758Z,98940.13
2022-11-24T20:09:10.913Z,98940.38
2022-11-24T20:11:39.871Z,98940.53
2022-11-24T20:14:16.500Z,98931.91
2022-11-24T20:16:47.967Z,98934.38
2022-11-24T20:19:18.984Z,98939.03
2022-11-24T20:21:49.506Z,98949.53
2022-11-24T20:24:22.295Z,98953.50
2022-11-24T20:26:52.915Z,98955.84
2022-11-24T20:29:22.865Z,98956.91
2022-11-24T20:31:55.304Z,98963.09
2022-11-24T20:34:24.873Z,98962.00
2022-11-24T20:36:54.635Z,98965.72
2022-11-24T20:39:26.474Z,98960.31
2022-11-24T20:41:56.127Z,98957.00
2022-11-24T20:44:26.896Z,98964.03
2022-11-24T20:47:00.530Z,98968.63
2022-11-24T20:49:30.028Z,98966.22
2022-11-24T20:51:58.357Z,98969.47
2022-11-24T20:54:26.882Z,98981.06
2022-11-24T20:56:55.882Z,98973.47
2022-11-24T20:59:26.011Z,98972.25
2022-11-24T21:01:57.333Z,98969.03
2022-11-24T21:04:27.730Z,98982.41
2022-11-24T21:06:56.192Z,98979.78
2022-11-24T21:09:25.510Z,98971.81
2022-11-24T21:11:54.862Z,98984.13
2022-11-24T21:14:24.583Z,98974.47
2022-11-24T21:16:52.893Z,98976.44
2022-11-24T21:19:22.721Z,98965.56
2022-11-24T21:21:51.118Z,98978.50
2022-11-24T21:24:21.723Z,98974.09
2022-11-24T21:26:52.927Z,98975.34
2022-11-24T21:29:23.883Z,98979.63
2022-11-24T21:31:52.725Z,98980.34
2022-11-24T21:34:25.403Z,98979.13
2022-11-24T21:36:53.535Z,98983.75
2022-11-24T21:39:22.691Z,98982.47
2022-11-24T21:41:50.948Z,98982.25
2022-11-24T21:44:19.261Z,98979.22
2022-11-24T21:46:52.717Z,98991.31
2022-11-24T21:49:26.190Z,98985.97
2022-11-24T21:51:56.052Z,98993.50
2022-11-24T21:54:25.045Z,98996.63
2022-11-24T21:56:55.676Z,98992.78
2022-11-24T21:59:24.603Z,98986.91
2022-11-24T22:01:53.336Z,98996.19
2022-11-24T22:04:21.865Z,98986.97
2022-11-24T22:06:54.414Z,98993.22
2022-11-24T22:09:24.110Z,98989.66
2022-11-24T22:11:53.344Z,98987.88
2022-11-24T22:14:22.409Z,98995.84
2022-11-24T22:16:50.600Z,98992.78
2022-11-24T22:19:20.421Z,98995.94
2022-11-24T22:21:49.087Z,98989.28
2022-11-24T22:24:25.788Z,98985.31
2022-11-24T22:26:55.988Z,98986.09
2022-11-24T22:29:24.717Z,98981.66
2022-11-24T22:31:53.197Z,98983.19
2022-11-24T22:34:22.064Z,98981.94
2022-11-24T22:36:55.217Z,98976.75
2022-11-24T22:39:25.146Z,98984.41
2022-11-24T22:41:55.376Z,98981.22
2022-11-24T22:44:23.553Z,98989.66
2022-11-24T22:46:51.985Z,98989.03
2022-11-24T22:49:20.227Z,98977.44
2022-11-24T22:51:48.681Z,98973.13
2022-11-24T22:54:16.823Z,98971.50
2022-11-24T22:56:46.622Z,98973.84
2022-11-24T22:59:14.825Z,98968.38
2022-11-24T23:01:43.218Z,98969.88
2022-11-24T23:04:11.462Z,98977.94
2022-11-24T23:06:39.903Z,98974.75
2022-11-24T23:09:08.418Z,98980.94
2022-11-24T23:11:41.515Z,98977.25
2022-11-24T23:14:15.375Z,98982.28
2022-11-24T23:16:44.095Z,98983.44
2022-11-24T23:19:12.405Z,98984.34
2022-11-24T23:21:41.119Z,98981.16
2022-11-24T23:24:10.235Z,98991.94
2022-11-24T23:26:41.545Z,98989.38
2022-11-24T23:29:12.015Z,98984.91
2022-11-24T23:31:41.058Z,98987.19
2022-11-24T23:34:11.270Z,98978.44
2022-11-24T23:36:39.632Z,98979.81
2022-11-24T23:39:09.629Z,98981.84
2022-11-24T23:41:37.747Z,98980.06
2022-11-24T23:44:09.954Z,98975.25
2022-11-24T23:46:40.225Z,98985.25
2022-11-24T23:49:08.311Z,98987.75
2022-11-24T23:51:36.831Z,98986.97
2022-11-24T23:54:09.119Z,98988.78
2022-11-24T23:56:37.203Z,98981.91
2022-11-24T23:59:11.339Z,98980.28
